Commit Graph

  • c6eaf19eb0 Weapon tags, change Zenny 2024-09-07 19:55:13 -07:00
  • c308fadb87 Add equippable items Zenny 2024-09-07 17:38:01 -07:00
  • f223102525 fixed da dialogue Zenny 2024-09-07 17:05:10 -07:00
  • 872f246a23 Things are mostly fixed, but dialogue isn't disappearing Zenny 2024-09-07 16:34:31 -07:00
  • b470a9d2fe Update Zenny 2024-09-07 15:01:45 -07:00
  • fbaf698852 Teleport works, item pickup is broken Zenny 2024-09-07 14:00:40 -07:00
  • 4c2731bc7b Trying teleport again Zenny 2024-09-07 05:42:51 -07:00
  • 03a9130bc5 kaizo super mario Zenny 2024-09-07 05:01:40 -07:00
  • 5d6b94ddf6 Ignore addons folder Zenny 2024-09-07 03:34:48 -07:00
  • 3665150342 Make basic overworld and teleport to first dungeon floor Zenny 2024-09-07 03:31:42 -07:00
  • 98d096303c Big fix of inventory system, add accessory item type Zenny 2024-09-07 02:22:14 -07:00
  • 33d282ebfb Fix data model for elemental damage and resistance Zenny 2024-09-07 01:07:47 -07:00
  • b478ad39fe Fix inventory menu, add armor as equippable item Zenny 2024-09-07 01:01:50 -07:00
  • dc035eb1fe Add elements Attempt to block line of sight with walls Zenny 2024-09-06 22:04:00 -07:00
  • 8eeeb0890c Fix inventory button press not working on steamdeck, remove in-work capricorn enemy type Zenny 2024-09-05 14:31:35 -07:00
  • 54d9dcf9fa Basic enemy attack pattern Zenny 2024-09-04 23:05:49 -07:00
  • 6fc9568137 Random patrol Zenny 2024-09-04 18:31:35 -07:00
  • d24b28acd5 Line of sight for enemy Zenny 2024-09-04 17:49:40 -07:00
  • 3dffa12eb8 Enemy adjustments Zenny 2024-09-04 17:20:14 -07:00
  • 18a6d5a0b7 For now, go straight to instantiating the scene instead of the main menu/loading screen Zenny 2024-09-04 13:11:37 -07:00
  • b21bcf0573 Load screen with pausing Zenny 2024-09-04 12:52:28 -07:00
  • bd6f57e7df Stat bar and timer Zenny 2024-09-04 01:58:06 -07:00
  • d7a49ba974 Damage calculation including elemental buff/resistance Zenny 2024-09-04 01:24:37 -07:00
  • 9a24ebf058 Add different type of inventory item (armor) Zenny 2024-09-03 23:37:49 -07:00
  • 19d3c40fef found out about baroque shooting Zenny 2024-09-03 23:10:06 -07:00
  • 8df3abc775 Enemy follow system Zenny 2024-09-03 00:41:15 -07:00
  • dc9d9c4589 Throw item Zenny 2024-09-01 17:51:16 -07:00
  • dc3639ad6e Sync weapon equip to hitbox damage Zenny 2024-09-01 16:34:33 -07:00
  • 5b110845e9 Add template for Room scene Zenny 2024-09-01 15:34:52 -07:00
  • 4c44486fd4 Remove detection spheres Zenny 2024-09-01 15:30:29 -07:00
  • b0e8ab124a Support different resolutions Zenny 2024-09-01 13:34:59 -07:00
  • 4dd89e2035 Barebones inventory menu addition Zenny 2024-09-01 13:22:40 -07:00
  • b1ef3dbaab Remove in-progress work that isn't working well Zenny 2024-09-01 12:59:48 -07:00
  • ea99e88535 Spawn items Zenny 2024-08-28 21:48:05 -07:00
  • 699a333951 Messing with the dungeon Zenny 2024-08-27 20:05:18 -07:00
  • 2fb0c364ca Re-introduce prototype code Zenny 2024-08-23 00:39:15 -07:00
  • 8b3d1bed8a Basic Dungeon generation implementation Zenny 2024-08-22 22:09:58 -07:00
  • 23ecd3a866 Set up C# solution Zenny 2024-08-22 18:17:32 -07:00
  • fed5d4b010 Delete default icon Zenny 2024-08-22 16:51:34 -07:00
  • 5c81398c83 Add DeployToSteamOS and Procedural Dungeon Generation addons Zenny 2024-08-22 16:51:05 -07:00
  • 6a6be038e8 Init Zenny 2024-08-22 16:46:52 -07:00